»·PEaware :: AAL1470 KPHX-KLAS

AAL1470 :: KPHX-KLAS

FLIGHT INFORMATION

Flight Status: Arrived
Operator:
American Airlines
More flights by this operator :: More flights under this callsign
Pilot: Andrew C. (32327)
Aircraft: AIRBUS A321
(A321)
More flights by this aircraft type
Origin: KPHX Phoenix Sky Harbor Intl
United States
Destination: KLAS McCarran Intl
United States
More flights between these airports :: More routes between these airports
Route: +ZEPER2 RRSTA IGM TYSSN5
File this flight plan on PilotEdge
Remarks:
Altitude:
(Current/Filed)
34,000ft
Speed:
(Current/Filed)
500kts
Departed: 08-Nov-20 09:35 AM
Arrived: 08-Nov-20 10:22 AM
Distance/Time
Traveled:
221nm/0:47
Distance/Time
To Go:
Arrived

Flight Plot

Page will automatically refresh every two minutes.

Flight plan parsing failed; only flown route is shown


Map Options




Map Legend


Flown Route
Filed Route
Departure Airport
Arrival Airport
Navaid (VOR, NDB)
Fix

Horizontal Profiles

Position Reports

Time Latitude Longitude Heading Altitude Ground
Speed
08-Nov-20 09:07 33.437578 -111.998808 269 1132ft 0kts
08-Nov-20 09:08 33.437578 -111.998808 269 1132ft 0kts
08-Nov-20 09:09 33.437578 -111.998808 269 1132ft 0kts
08-Nov-20 09:10 33.437578 -111.998808 269 1132ft 0kts
08-Nov-20 09:11 33.437578 -111.998808 269 1132ft 0kts
08-Nov-20 09:12 33.437578 -111.998808 269 1132ft 0kts
08-Nov-20 09:13 33.437578 -111.998808 269 1132ft 0kts
08-Nov-20 09:14 33.437578 -111.998808 269 1132ft 0kts
08-Nov-20 09:15 33.437578 -111.998808 269 1132ft 0kts
08-Nov-20 09:16 33.437578 -111.998808 269 1132ft 0kts
08-Nov-20 09:16 33.437578 -111.998808 269 1132ft 0kts
08-Nov-20 09:18 33.437578 -111.998808 269 1132ft 0kts
08-Nov-20 09:18 33.437578 -111.998808 269 1132ft 0kts
08-Nov-20 09:20 33.437578 -111.998808 269 1132ft 0kts
08-Nov-20 09:20 33.437578 -111.998807 269 1132ft 0kts
08-Nov-20 09:22 33.437298 -111.998301 340 1132ft 2kts
08-Nov-20 09:22 33.437072 -111.998273 4 1132ft 0kts
08-Nov-20 09:23 33.437072 -111.998273 4 1132ft 0kts
08-Nov-20 09:24 33.437235 -111.998259 4 1132ft 2kts
08-Nov-20 09:25 33.438106 -111.998243 0 1134ft 0kts
08-Nov-20 09:26 33.439026 -111.999874 270 1132ft 21kts
08-Nov-20 09:27 33.439027 -112.007131 269 1131ft 20kts
08-Nov-20 09:28 33.439018 -112.014293 270 1126ft 21kts
08-Nov-20 09:29 33.439016 -112.021717 269 1121ft 21kts
08-Nov-20 09:30 33.439596 -112.026718 355 1118ft 3kts
08-Nov-20 09:31 33.439727 -112.026727 356 1117ft 0kts
08-Nov-20 09:32 33.439727 -112.026727 356 1117ft 0kts
08-Nov-20 09:33 33.440886 -112.025351 90 1118ft 29kts
08-Nov-20 09:34 33.440383 -111.979094 92 2406ft 177kts
08-Nov-20 09:35 33.437213 -111.917104 93 4070ft 214kts
08-Nov-20 09:36 33.462021 -111.848839 11 5704ft 282kts
08-Nov-20 09:37 33.542370 -111.843828 2 8365ft 299kts
08-Nov-20 09:38 33.627079 -111.838337 2 9013ft 306kts
08-Nov-20 09:39 33.712324 -111.846669 345 10296ft 310kts
08-Nov-20 09:40 33.774508 -111.916788 299 11625ft 339kts
08-Nov-20 09:41 33.832488 -112.013044 299 13781ft 363kts
08-Nov-20 09:42 33.892860 -112.112406 298 16156ft 374kts
08-Nov-20 09:43 33.955076 -112.214930 297 18315ft 385kts
08-Nov-20 09:44 34.019724 -112.319314 301 20302ft 399kts
08-Nov-20 09:45 34.103201 -112.410989 309 22493ft 409kts
08-Nov-20 09:46 34.191579 -112.499269 309 24011ft 416kts
08-Nov-20 09:47 34.280770 -112.589203 308 25343ft 422kts
08-Nov-20 09:48 34.371130 -112.680816 308 26547ft 428kts
08-Nov-20 09:49 34.462169 -112.773384 307 28041ft 426kts
08-Nov-20 09:50 34.552085 -112.864899 307 29524ft 420kts
08-Nov-20 09:51 34.640660 -112.955453 306 30741ft 416kts
08-Nov-20 09:52 34.729183 -113.046122 306 31719ft 417kts
08-Nov-20 09:53 34.812130 -113.141764 298 32605ft 403kts
08-Nov-20 09:54 34.875420 -113.250029 288 33415ft 387kts
08-Nov-20 09:55 34.928483 -113.364902 292 33708ft 396kts
08-Nov-20 09:56 34.991911 -113.473819 293 32327ft 388kts
08-Nov-20 09:57 35.053803 -113.579557 293 30022ft 384kts
08-Nov-20 09:58 35.115753 -113.685739 294 27428ft 387kts
08-Nov-20 09:59 35.179094 -113.794205 296 24457ft 398kts
08-Nov-20 10:00 35.244435 -113.905230 301 21546ft 406kts
08-Nov-20 10:01 35.328443 -113.997551 315 19319ft 410kts
08-Nov-20 10:02 35.417634 -114.080156 316 17289ft 397kts
08-Nov-20 10:03 35.504648 -114.161213 316 15180ft 388kts
08-Nov-20 10:04 35.589756 -114.240587 317 13067ft 382kts
08-Nov-20 10:05 35.668628 -114.314185 316 12393ft 330kts
08-Nov-20 10:06 35.736465 -114.376991 321 12037ft 293kts
08-Nov-20 10:07 35.813481 -114.416743 332 12014ft 304kts
08-Nov-20 10:08 35.892433 -114.453556 332 11695ft 306kts
08-Nov-20 10:09 35.970904 -114.490350 334 10336ft 298kts
08-Nov-20 10:10 36.040343 -114.532134 289 9906ft 246kts
08-Nov-20 10:11 36.052192 -114.604936 274 9631ft 193kts
08-Nov-20 10:12 36.062352 -114.665859 274 8764ft 178kts
08-Nov-20 10:13 36.072025 -114.725137 269 8049ft 172kts
08-Nov-20 10:14 36.073110 -114.783591 262 7348ft 168kts
08-Nov-20 10:15 36.073196 -114.841178 263 6480ft 166kts
08-Nov-20 10:16 36.073296 -114.897847 263 5606ft 164kts
08-Nov-20 10:17 36.073817 -114.951176 263 4925ft 151kts
08-Nov-20 10:18 36.073800 -115.002915 262 4150ft 149kts
08-Nov-20 10:19 36.073693 -115.054007 266 3377ft 149kts
08-Nov-20 10:20 36.073690 -115.104762 264 2557ft 147kts
08-Nov-20 10:21 36.073628 -115.145675 271 2187ft 31kts
08-Nov-20 10:22 36.074482 -115.149984 298 2187ft 0kts
08-Nov-20 10:23 36.077028 -115.152326 334 2187ft 0kts
08-Nov-20 10:24 36.078615 -115.152891 46 2187ft 12kts
08-Nov-20 10:25 36.078504 -115.146844 94 2187ft 18kts
08-Nov-20 10:26 36.078293 -115.140432 88 2187ft 19kts
08-Nov-20 10:27 36.079466 -115.134178 44 2187ft 19kts
08-Nov-20 10:28 36.081222 -115.134998 227 2187ft 4kts
08-Nov-20 10:29 36.081065 -115.135197 224 2187ft 0kts
08-Nov-20 10:30 36.081065 -115.135197 224 2187ft 0kts

Navigation Log

Ident Type
Flight plan parsing failed, navigation log unavailable